createdAt,value
2019-02-08T00:00:11.419Z,1007.81
2019-02-08T00:01:11.435Z,1007.79
2019-02-08T00:02:11.406Z,1007.87
2019-02-08T00:03:11.386Z,1007.87
2019-02-08T00:04:11.372Z,1007.85
2019-02-08T00:05:11.367Z,1007.91
2019-02-08T00:06:11.373Z,1007.89
2019-02-08T00:07:11.345Z,1007.86
2019-02-08T00:08:11.330Z,1007.90
2019-02-08T00:09:11.321Z,1007.84
2019-02-08T00:10:11.307Z,1007.83
2019-02-08T00:11:11.314Z,1007.83
2019-02-08T00:12:11.304Z,1007.81
2019-02-08T00:13:11.279Z,1007.78
2019-02-08T00:14:11.267Z,1007.79
2019-02-08T00:15:11.252Z,1007.82
2019-02-08T00:16:11.261Z,1007.83
2019-02-08T00:17:11.234Z,1007.76
2019-02-08T00:18:11.219Z,1007.80
2019-02-08T00:19:11.208Z,1007.78
2019-02-08T00:20:11.196Z,1007.79
2019-02-08T00:21:11.217Z,1007.76
2019-02-08T00:22:11.179Z,1007.79
2019-02-08T00:23:11.164Z,1007.81
2019-02-08T00:24:11.153Z,1007.84
2019-02-08T00:25:11.151Z,1007.88
2019-02-08T00:26:11.160Z,1007.84
2019-02-08T00:27:11.117Z,1007.81
2019-02-08T00:28:11.109Z,1007.75
2019-02-08T00:29:11.112Z,1007.82
2019-02-08T00:30:11.085Z,1007.75
2019-02-08T00:31:11.096Z,1007.73
2019-02-08T00:32:11.063Z,1007.75
2019-02-08T00:33:11.050Z,1007.71
2019-02-08T00:34:11.036Z,1007.75
2019-02-08T00:35:11.028Z,1007.75
2019-02-08T00:36:11.044Z,1007.76
2019-02-08T00:37:11.005Z,1007.80
2019-02-08T00:38:10.991Z,1007.83
2019-02-08T00:39:10.980Z,1007.81
2019-02-08T00:40:10.974Z,1007.76
2019-02-08T00:41:10.963Z,1007.78
2019-02-08T00:42:10.965Z,1007.77
2019-02-08T00:43:10.936Z,1007.75
2019-02-08T00:44:10.928Z,1007.75
2019-02-08T00:45:10.914Z,1007.74
2019-02-08T00:46:10.902Z,1007.72
2019-02-08T00:47:10.910Z,1007.74
2019-02-08T00:48:10.882Z,1007.69
2019-02-08T00:49:10.877Z,1007.69
2019-02-08T00:50:10.858Z,1007.75
2019-02-08T00:51:19.258Z,1007.75
2019-02-08T00:53:20.939Z,1007.78
2019-02-08T00:54:20.920Z,1007.80
2019-02-08T00:55:20.910Z,1007.80
2019-02-08T00:56:20.884Z,1007.83
2019-02-08T00:57:20.891Z,1007.81
2019-02-08T00:58:20.860Z,1007.83
2019-02-08T00:59:20.852Z,1007.82
2019-02-08T01:00:20.841Z,1007.76
2019-02-08T01:01:20.829Z,1007.78
2019-02-08T01:02:20.838Z,1007.77
2019-02-08T01:03:20.809Z,1007.81
2019-02-08T01:04:20.796Z,1007.81
2019-02-08T01:05:20.781Z,1007.83
2019-02-08T01:06:20.777Z,1007.80
2019-02-08T01:07:20.786Z,1007.81
2019-02-08T01:08:20.748Z,1007.82
2019-02-08T01:09:20.736Z,1007.84
2019-02-08T01:10:20.732Z,1007.79
2019-02-08T01:11:20.722Z,1007.82
2019-02-08T01:12:20.726Z,1007.81
2019-02-08T01:13:20.692Z,1007.82
2019-02-08T01:14:20.681Z,1007.76
2019-02-08T01:15:20.667Z,1007.79
2019-02-08T01:16:20.669Z,1007.86
2019-02-08T01:17:20.684Z,1007.79
2019-02-08T01:18:20.639Z,1007.81
2019-02-08T01:19:20.623Z,1007.77
2019-02-08T01:20:20.612Z,1007.75
2019-02-08T01:21:20.603Z,1007.78
2019-02-08T01:22:20.611Z,1007.78
2019-02-08T01:23:20.579Z,1007.77
2019-02-08T01:24:20.574Z,1007.79
2019-02-08T01:25:20.561Z,1007.74
2019-02-08T01:26:20.544Z,1007.80
2019-02-08T01:27:20.565Z,1007.76
2019-02-08T01:28:20.526Z,1007.80
2019-02-08T01:29:20.516Z,1007.71
2019-02-08T01:30:20.506Z,1007.76
2019-02-08T01:31:20.493Z,1007.75
2019-02-08T01:32:20.500Z,1007.76
2019-02-08T01:33:20.472Z,1007.75
2019-02-08T01:34:20.458Z,1007.75
2019-02-08T01:35:20.444Z,1007.72
2019-02-08T01:36:20.435Z,1007.74
2019-02-08T01:37:20.440Z,1007.73
2019-02-08T01:38:20.410Z,1007.68
2019-02-08T01:39:20.402Z,1007.67
2019-02-08T01:40:20.393Z,1007.63
2019-02-08T01:41:20.384Z,1007.64
2019-02-08T01:42:20.396Z,1007.64
2019-02-08T01:43:20.363Z,1007.61
2019-02-08T01:44:20.345Z,1007.65
2019-02-08T01:45:20.335Z,1007.70
2019-02-08T01:46:20.324Z,1007.65
2019-02-08T01:47:20.328Z,1007.70
2019-02-08T01:48:20.297Z,1007.69
2019-02-08T01:49:20.287Z,1007.70
2019-02-08T01:50:20.274Z,1007.70
2019-02-08T01:51:20.264Z,1007.71
2019-02-08T01:52:20.274Z,1007.72
2019-02-08T01:53:20.242Z,1007.75
2019-02-08T01:54:20.230Z,1007.75
2019-02-08T01:55:20.220Z,1007.81
2019-02-08T01:56:20.214Z,1007.79
2019-02-08T01:57:20.223Z,1007.80
2019-02-08T01:58:20.186Z,1007.82
2019-02-08T01:59:20.179Z,1007.77
2019-02-08T02:00:20.168Z,1007.74
2019-02-08T02:01:20.158Z,1007.72
2019-02-08T02:02:20.167Z,1007.71
2019-02-08T02:03:20.132Z,1007.69
2019-02-08T02:04:20.122Z,1007.74
2019-02-08T02:05:20.112Z,1007.72
2019-02-08T02:06:20.099Z,1007.79
2019-02-08T02:07:20.111Z,1007.74
2019-02-08T02:08:20.090Z,1007.78
2019-02-08T02:09:20.062Z,1007.79
2019-02-08T02:10:20.054Z,1007.78
2019-02-08T02:11:20.040Z,1007.80
2019-02-08T02:12:20.051Z,1007.73
2019-02-08T02:13:20.023Z,1007.74
2019-02-08T02:14:20.010Z,1007.75
2019-02-08T02:15:20.001Z,1007.67
2019-02-08T02:16:19.986Z,1007.66
2019-02-08T02:17:20.001Z,1007.64
2019-02-08T02:18:19.965Z,1007.63
2019-02-08T02:19:19.952Z,1007.65
2019-02-08T02:20:19.946Z,1007.63
2019-02-08T02:21:19.929Z,1007.65
2019-02-08T02:22:19.941Z,1007.65
2019-02-08T02:23:19.909Z,1007.66
2019-02-08T02:24:19.896Z,1007.72
2019-02-08T02:25:19.884Z,1007.63
2019-02-08T02:26:19.876Z,1007.65
2019-02-08T02:27:19.879Z,1007.69
2019-02-08T02:28:19.850Z,1007.72
2019-02-08T02:29:19.840Z,1007.67
2019-02-08T02:30:19.829Z,1007.69
2019-02-08T02:31:19.817Z,1007.70
2019-02-08T02:32:19.827Z,1007.74
2019-02-08T02:33:19.819Z,1007.72
2019-02-08T02:34:19.787Z,1007.76
2019-02-08T02:35:19.780Z,1007.74
2019-02-08T02:36:19.762Z,1007.72
2019-02-08T02:37:19.749Z,1007.73
2019-02-08T02:38:19.759Z,1007.74
2019-02-08T02:39:19.734Z,1007.77
2019-02-08T02:40:19.720Z,1007.76
2019-02-08T02:41:19.707Z,1007.72
2019-02-08T02:42:19.694Z,1007.80
2019-02-08T02:43:19.701Z,1007.76
2019-02-08T02:44:19.681Z,1007.73
2019-02-08T02:45:19.662Z,1007.75
2019-02-08T02:46:19.652Z,1007.70
2019-02-08T02:47:19.678Z,1007.74
2019-02-08T02:48:19.651Z,1007.70
2019-02-08T02:49:19.618Z,1007.76
2019-02-08T02:50:19.622Z,1007.73
2019-02-08T02:51:19.594Z,1007.72
2019-02-08T02:52:19.583Z,1007.68
2019-02-08T02:53:19.590Z,1007.72
2019-02-08T02:54:19.566Z,1007.68
2019-02-08T02:55:19.569Z,1007.73
2019-02-08T02:56:19.542Z,1007.77
2019-02-08T02:57:19.527Z,1007.74
2019-02-08T02:58:19.536Z,1007.74
2019-02-08T02:59:19.505Z,1007.73
2019-02-08T03:00:19.495Z,1007.71
2019-02-08T03:01:19.481Z,1007.76
2019-02-08T03:02:19.469Z,1007.68
2019-02-08T03:03:19.486Z,1007.68
2019-02-08T03:04:19.485Z,1007.70
2019-02-08T03:05:19.440Z,1007.68
2019-02-08T03:06:19.428Z,1007.63
2019-02-08T03:07:19.414Z,1007.73
2019-02-08T03:08:19.426Z,1007.71
2019-02-08T03:09:19.393Z,1007.70
2019-02-08T03:10:19.384Z,1007.72
2019-02-08T03:11:19.370Z,1007.68
2019-02-08T03:12:19.358Z,1007.65
2019-02-08T03:13:19.373Z,1007.69
2019-02-08T03:14:19.340Z,1007.73
2019-02-08T03:15:19.328Z,1007.73
2019-02-08T03:16:19.316Z,1007.75
2019-02-08T03:17:19.307Z,1007.72
2019-02-08T03:18:19.315Z,1007.72
2019-02-08T03:19:19.285Z,1007.73
2019-02-08T03:20:19.270Z,1007.69
2019-02-08T03:21:19.257Z,1007.69
2019-02-08T03:22:19.247Z,1007.72
2019-02-08T03:23:19.256Z,1007.73
2019-02-08T03:24:19.225Z,1007.73
2019-02-08T03:25:19.228Z,1007.75
2019-02-08T03:26:19.201Z,1007.78
2019-02-08T03:27:19.193Z,1007.74
2019-02-08T03:28:19.206Z,1007.73
2019-02-08T03:29:19.171Z,1007.72
2019-02-08T03:30:19.158Z,1007.67
2019-02-08T03:31:19.164Z,1007.67
2019-02-08T03:32:19.141Z,1007.69
2019-02-08T03:33:19.146Z,1007.71
2019-02-08T03:34:19.117Z,1007.73
2019-02-08T03:35:19.103Z,1007.70
2019-02-08T03:36:19.097Z,1007.67
2019-02-08T03:37:19.077Z,1007.68
2019-02-08T03:38:19.086Z,1007.65
2019-02-08T03:39:19.060Z,1007.68
2019-02-08T03:40:19.045Z,1007.66
2019-02-08T03:41:19.033Z,1007.65
2019-02-08T03:42:19.025Z,1007.63
2019-02-08T03:43:19.032Z,1007.64
2019-02-08T03:44:19.002Z,1007.69
2019-02-08T03:45:18.988Z,1007.63
2019-02-08T03:46:18.979Z,1007.56
2019-02-08T03:47:18.966Z,1007.57
2019-02-08T03:48:18.974Z,1007.60
2019-02-08T03:49:18.945Z,1007.59
2019-02-08T03:50:18.937Z,1007.61
2019-02-08T03:51:18.921Z,1007.60
2019-02-08T03:52:18.911Z,1007.61
2019-02-08T03:53:18.919Z,1007.59
2019-02-08T03:54:21.300Z,1007.58
2019-02-08T03:55:18.880Z,1007.57
2019-02-08T03:56:18.865Z,1007.58
2019-02-08T03:57:18.859Z,1007.64
2019-02-08T03:58:18.869Z,1007.62
2019-02-08T03:59:18.833Z,1007.61
2019-02-08T04:00:18.820Z,1007.61
2019-02-08T04:01:18.812Z,1007.58
2019-02-08T04:02:18.805Z,1007.57
2019-02-08T04:03:18.805Z,1007.59
2019-02-08T04:04:18.780Z,1007.61
2019-02-08T04:05:18.770Z,1007.60
2019-02-08T04:06:18.754Z,1007.62
2019-02-08T04:07:18.742Z,1007.53
2019-02-08T04:08:18.759Z,1007.55
2019-02-08T04:09:18.722Z,1007.55
2019-02-08T04:10:18.712Z,1007.51
2019-02-08T04:11:18.698Z,1007.56
2019-02-08T04:12:18.691Z,1007.51
2019-02-08T04:13:18.696Z,1007.52
2019-02-08T04:14:18.666Z,1007.50
2019-02-08T04:15:18.654Z,1007.51
2019-02-08T04:16:18.648Z,1007.48
2019-02-08T04:17:18.635Z,1007.48
2019-02-08T04:18:18.662Z,1007.49
2019-02-08T04:19:18.612Z,1007.46
2019-02-08T04:20:18.600Z,1007.41
2019-02-08T04:21:18.596Z,1007.38
2019-02-08T04:22:18.576Z,1007.39
2019-02-08T04:23:18.566Z,1007.37
2019-02-08T04:24:18.581Z,1007.40
2019-02-08T04:25:18.542Z,1007.43
2019-02-08T04:26:18.531Z,1007.45
2019-02-08T04:27:18.519Z,1007.40
2019-02-08T04:28:18.512Z,1007.38
2019-02-08T04:29:18.525Z,1007.36
2019-02-08T04:30:18.486Z,1007.42
2019-02-08T04:31:18.476Z,1007.42
2019-02-08T04:32:18.467Z,1007.47
2019-02-08T04:33:18.453Z,1007.47
2019-02-08T04:34:18.461Z,1007.43
2019-02-08T04:35:18.438Z,1007.51
2019-02-08T04:36:18.423Z,1007.55
2019-02-08T04:37:18.418Z,1007.54
2019-02-08T04:38:18.588Z,1007.51
2019-02-08T04:39:18.408Z,1007.42
2019-02-08T04:40:18.375Z,1007.36
2019-02-08T04:41:18.380Z,1007.44
2019-02-08T04:42:18.352Z,1007.44
2019-02-08T04:43:18.342Z,1007.43
2019-02-08T04:44:18.351Z,1007.42
2019-02-08T04:45:18.321Z,1007.41
2019-02-08T04:46:18.309Z,1007.39
2019-02-08T04:47:18.299Z,1007.37
2019-02-08T04:48:18.288Z,1007.34
2019-02-08T04:49:18.294Z,1007.30
2019-02-08T04:50:18.265Z,1007.30
2019-02-08T04:51:18.270Z,1007.26
2019-02-08T04:52:18.245Z,1007.29
2019-02-08T04:53:18.244Z,1007.30
2019-02-08T04:54:18.239Z,1007.25
2019-02-08T04:55:18.207Z,1007.27
2019-02-08T04:56:18.196Z,1007.27
2019-02-08T04:58:10.995Z,1007.30
2019-02-08T04:59:10.997Z,1007.25
2019-02-08T05:00:10.968Z,1007.29
2019-02-08T05:01:10.958Z,1007.25
2019-02-08T05:02:10.950Z,1007.29
2019-02-08T05:03:10.935Z,1007.27
2019-02-08T05:04:10.973Z,1007.26
2019-02-08T05:05:10.913Z,1007.28
2019-02-08T05:06:10.903Z,1007.26
2019-02-08T05:07:20.329Z,1007.24
2019-02-08T05:08:10.879Z,1007.30
2019-02-08T05:09:10.889Z,1007.35
2019-02-08T05:10:10.858Z,1007.34
2019-02-08T05:11:10.850Z,1007.31
2019-02-08T05:12:10.838Z,1007.30
2019-02-08T05:13:10.840Z,1007.29
2019-02-08T05:14:10.833Z,1007.32
2019-02-08T05:15:10.804Z,1007.34
2019-02-08T05:16:10.804Z,1007.34
2019-02-08T05:17:10.784Z,1007.39
2019-02-08T05:18:10.770Z,1007.33
2019-02-08T05:19:10.778Z,1007.35
2019-02-08T05:20:10.752Z,1007.35
2019-02-08T05:21:10.737Z,1007.29
2019-02-08T05:22:10.725Z,1007.31
2019-02-08T05:23:10.715Z,1007.30
2019-02-08T05:24:10.721Z,1007.32
2019-02-08T05:25:10.693Z,1007.29
2019-02-08T05:26:10.683Z,1007.35
2019-02-08T05:27:10.674Z,1007.25
2019-02-08T05:28:10.662Z,1007.22
2019-02-08T05:29:10.670Z,1007.23
2019-02-08T05:30:10.639Z,1007.20
2019-02-08T05:31:10.629Z,1007.21
2019-02-08T05:32:10.616Z,1007.14
2019-02-08T05:33:10.640Z,1007.18
2019-02-08T05:34:10.614Z,1007.13
2019-02-08T05:35:10.586Z,1007.08
2019-02-08T05:36:10.574Z,1007.09
2019-02-08T05:37:10.561Z,1007.10
2019-02-08T05:38:10.553Z,1007.11
2019-02-08T05:39:10.564Z,1007.09
2019-02-08T05:40:10.532Z,1007.10
2019-02-08T05:41:10.520Z,1007.16
2019-02-08T05:42:10.508Z,1007.12
2019-02-08T05:43:10.496Z,1007.16
2019-02-08T05:44:10.502Z,1007.10
2019-02-08T05:45:10.481Z,1007.17
2019-02-08T05:46:10.461Z,1007.14
2019-02-08T05:47:10.450Z,1007.12
2019-02-08T05:48:10.441Z,1007.14
2019-02-08T05:49:10.458Z,1007.13
2019-02-08T05:50:10.421Z,1007.16
2019-02-08T05:51:10.404Z,1007.16
2019-02-08T05:52:10.399Z,1007.15
2019-02-08T05:53:10.387Z,1007.13
2019-02-08T05:54:10.374Z,1007.11
2019-02-08T05:55:10.382Z,1007.09
2019-02-08T05:56:10.353Z,1007.13
2019-02-08T05:57:10.339Z,1007.12
2019-02-08T05:58:10.328Z,1007.10
2019-02-08T05:59:10.315Z,1007.06
2019-02-08T06:00:10.325Z,1007.08
2019-02-08T06:01:10.293Z,1007.05
2019-02-08T06:02:10.283Z,1007.00
2019-02-08T06:03:10.271Z,1007.00
2019-02-08T06:04:10.263Z,1007.01
2019-02-08T06:05:10.274Z,1007.01
2019-02-08T06:06:10.241Z,1007.03
2019-02-08T06:07:10.226Z,1007.08
2019-02-08T06:08:10.215Z,1007.02
2019-02-08T06:09:10.204Z,1007.04
2019-02-08T06:10:10.216Z,1007.06
2019-02-08T06:11:10.199Z,1007.07
2019-02-08T06:12:10.171Z,1007.10
2019-02-08T06:13:10.164Z,1007.09
2019-02-08T06:14:10.152Z,1007.11
2019-02-08T06:15:10.162Z,1007.12
2019-02-08T06:16:10.138Z,1007.15
2019-02-08T06:17:10.120Z,1007.14
2019-02-08T06:18:10.108Z,1007.15
2019-02-08T06:19:10.095Z,1007.11
2019-02-08T06:20:10.107Z,1007.13
2019-02-08T06:21:10.076Z,1007.11
2019-02-08T06:22:10.060Z,1007.08
2019-02-08T06:23:10.051Z,1007.11
2019-02-08T06:24:10.038Z,1007.13
2019-02-08T06:25:10.057Z,1007.11
2019-02-08T06:26:10.015Z,1007.11
2019-02-08T06:27:10.005Z,1007.12
2019-02-08T06:28:09.995Z,1007.15
2019-02-08T06:29:09.983Z,1007.15
2019-02-08T06:30:09.990Z,1007.19
2019-02-08T06:31:09.961Z,1007.16
2019-02-08T06:32:09.952Z,1007.15
2019-02-08T06:33:09.947Z,1007.20
2019-02-08T06:34:09.928Z,1007.19
2019-02-08T06:35:09.939Z,1007.16
2019-02-08T06:36:09.905Z,1007.14
2019-02-08T06:37:09.894Z,1007.12
2019-02-08T06:38:09.889Z,1007.20
2019-02-08T06:39:09.871Z,1007.16
2019-02-08T06:40:09.879Z,1007.16
2019-02-08T06:41:09.853Z,1007.17
2019-02-08T06:42:09.839Z,1007.17
2019-02-08T06:43:09.845Z,1007.17
2019-02-08T06:44:09.818Z,1007.20
2019-02-08T06:45:09.825Z,1007.24
2019-02-08T06:46:09.818Z,1007.26
2019-02-08T06:47:09.784Z,1007.26
2019-02-08T06:48:09.772Z,1007.28
2019-02-08T06:49:09.761Z,1007.27
2019-02-08T06:50:09.772Z,1007.25
2019-02-08T06:51:19.042Z,1007.29
2019-02-08T06:52:09.736Z,1007.25
2019-02-08T06:53:09.717Z,1007.25
2019-02-08T06:54:09.707Z,1007.22
2019-02-08T06:55:11.134Z,1007.27
2019-02-08T06:56:09.686Z,1007.31
2019-02-08T06:57:09.674Z,1007.28
2019-02-08T06:58:09.661Z,1007.26
2019-02-08T06:59:09.650Z,1007.30
2019-02-08T07:00:09.658Z,1007.26
2019-02-08T07:01:09.631Z,1007.31
2019-02-08T07:02:09.617Z,1007.33
2019-02-08T07:03:09.605Z,1007.30
2019-02-08T07:04:09.595Z,1007.35
2019-02-08T07:05:17.891Z,1007.33
2019-02-08T07:06:09.572Z,1007.36
2019-02-08T07:07:09.569Z,1007.39
2019-02-08T07:08:09.569Z,1007.34
2019-02-08T07:09:09.543Z,1007.29
2019-02-08T07:10:09.546Z,1007.38
2019-02-08T07:11:09.518Z,1007.36
2019-02-08T07:12:09.507Z,1007.38
2019-02-08T07:13:09.495Z,1007.34
2019-02-08T07:14:20.108Z,1007.40
2019-02-08T07:15:10.162Z,1007.36
2019-02-08T07:16:18.312Z,1007.41
2019-02-08T07:17:09.451Z,1007.37
2019-02-08T07:18:09.440Z,1007.40
2019-02-08T07:19:09.430Z,1007.38
2019-02-08T07:20:09.439Z,1007.42
2019-02-08T07:21:09.407Z,1007.37
2019-02-08T07:22:09.396Z,1007.42
2019-02-08T07:23:09.385Z,1007.38
2019-02-08T07:24:09.375Z,1007.37
2019-02-08T07:25:18.905Z,1007.42
2019-02-08T07:26:18.892Z,1007.39
2019-02-08T07:27:09.344Z,1007.39
2019-02-08T07:28:09.335Z,1007.37
2019-02-08T07:29:09.322Z,1007.38
2019-02-08T07:30:09.337Z,1007.37
2019-02-08T07:31:09.327Z,1007.35
2019-02-08T07:32:09.293Z,1007.36
2019-02-08T07:33:09.273Z,1007.31
2019-02-08T07:34:09.266Z,1007.36
2019-02-08T07:35:09.266Z,1007.28
2019-02-08T07:36:09.262Z,1007.26
2019-02-08T07:37:09.239Z,1007.22
2019-02-08T07:38:09.219Z,1007.23
2019-02-08T07:39:09.207Z,1007.18
2019-02-08T07:40:09.199Z,1007.20
2019-02-08T07:41:09.207Z,1007.19
2019-02-08T07:42:09.176Z,1007.21
2019-02-08T07:43:09.164Z,1007.22
2019-02-08T07:44:09.153Z,1007.23
2019-02-08T07:45:09.142Z,1007.28
2019-02-08T07:46:09.151Z,1007.26
2019-02-08T07:47:09.119Z,1007.28
2019-02-08T07:48:09.109Z,1007.28
2019-02-08T07:49:09.097Z,1007.29
2019-02-08T07:50:09.089Z,1007.29
2019-02-08T07:51:09.095Z,1007.28
2019-02-08T07:52:09.064Z,1007.24
2019-02-08T07:53:09.054Z,1007.23
2019-02-08T07:54:09.042Z,1007.21
2019-02-08T07:55:09.032Z,1007.23
2019-02-08T07:56:09.040Z,1007.23
2019-02-08T07:57:09.009Z,1007.27
2019-02-08T07:58:09.002Z,1007.26
2019-02-08T07:59:08.995Z,1007.25
2019-02-08T08:00:08.978Z,1007.22
2019-02-08T08:01:08.985Z,1007.21
2019-02-08T08:02:08.953Z,1007.21
2019-02-08T08:03:08.951Z,1007.21
2019-02-08T08:04:08.936Z,1007.20
2019-02-08T08:05:08.925Z,1007.23
2019-02-08T08:06:08.934Z,1007.24
2019-02-08T08:07:08.903Z,1007.25
2019-02-08T08:08:08.888Z,1007.26
2019-02-08T08:09:08.879Z,1007.22
2019-02-08T08:10:08.868Z,1007.23
2019-02-08T08:11:08.879Z,1007.25
2019-02-08T08:12:08.846Z,1007.23
2019-02-08T08:13:08.835Z,1007.29
2019-02-08T08:14:08.822Z,1007.18
2019-02-08T08:15:08.813Z,1007.23
2019-02-08T08:16:08.825Z,1007.23
2019-02-08T08:17:08.803Z,1007.26
2019-02-08T08:18:08.797Z,1007.30
2019-02-08T08:19:08.770Z,1007.29
2019-02-08T08:20:08.760Z,1007.28
2019-02-08T08:21:08.766Z,1007.26
2019-02-08T08:22:08.736Z,1007.29
2019-02-08T08:23:08.725Z,1007.33
2019-02-08T08:24:08.715Z,1007.32
2019-02-08T08:25:08.708Z,1007.33
2019-02-08T08:26:08.713Z,1007.31
2019-02-08T08:27:08.681Z,1007.34
2019-02-08T08:28:08.677Z,1007.38
2019-02-08T08:29:08.663Z,1007.37
2019-02-08T08:30:08.648Z,1007.38
2019-02-08T08:31:08.658Z,1007.40
2019-02-08T08:32:08.632Z,1007.38
2019-02-08T08:33:08.616Z,1007.38
2019-02-08T08:34:08.605Z,1007.35
2019-02-08T08:35:08.595Z,1007.34
2019-02-08T08:36:08.607Z,1007.36
2019-02-08T08:37:08.573Z,1007.37
2019-02-08T08:38:08.559Z,1007.33
2019-02-08T08:39:08.556Z,1007.35
2019-02-08T08:40:08.539Z,1007.37
2019-02-08T08:41:08.557Z,1007.35
2019-02-08T08:42:08.517Z,1007.37
2019-02-08T08:43:08.511Z,1007.35
2019-02-08T08:44:08.520Z,1007.40
2019-02-08T08:45:08.486Z,1007.35
2019-02-08T08:46:08.491Z,1007.36
2019-02-08T08:47:08.462Z,1007.30
2019-02-08T08:48:08.450Z,1007.27
2019-02-08T08:49:08.439Z,1007.26
2019-02-08T08:50:08.469Z,1007.23
2019-02-08T08:51:08.439Z,1007.19
2019-02-08T08:52:08.443Z,1007.16
2019-02-08T08:53:08.394Z,1007.16
2019-02-08T08:54:08.388Z,1007.16
2019-02-08T08:55:08.373Z,1007.17
2019-02-08T08:56:08.382Z,1007.13
2019-02-08T08:57:08.350Z,1007.13
2019-02-08T08:58:08.344Z,1007.16
2019-02-08T08:59:08.331Z,1007.18
2019-02-08T09:00:08.322Z,1007.15
2019-02-08T09:01:08.328Z,1007.13
2019-02-08T09:02:08.298Z,1007.13
2019-02-08T09:03:08.285Z,1007.09
2019-02-08T09:04:08.275Z,1007.12
2019-02-08T09:05:08.265Z,1007.14
2019-02-08T09:06:08.840Z,1007.09
2019-02-08T09:07:15.859Z,1007.11
2019-02-08T09:08:09.233Z,1007.12
2019-02-08T09:09:08.245Z,1007.08
2019-02-08T09:10:08.214Z,1007.13
2019-02-08T09:11:08.221Z,1007.12
2019-02-08T09:12:08.187Z,1007.10
2019-02-08T09:13:14.668Z,1007.14
2019-02-08T09:14:08.180Z,1007.13
2019-02-08T09:15:08.156Z,1007.15
2019-02-08T09:16:08.152Z,1007.12
2019-02-08T09:17:08.160Z,1007.11
2019-02-08T09:18:08.121Z,1007.16
2019-02-08T09:19:08.116Z,1007.10
2019-02-08T09:20:08.099Z,1007.12
2019-02-08T09:21:08.087Z,1007.15
2019-02-08T09:22:08.098Z,1007.11
2019-02-08T09:23:08.069Z,1007.12
2019-02-08T09:24:08.054Z,1007.13
2019-02-08T09:25:08.049Z,1007.07
2019-02-08T09:26:08.035Z,1007.06
2019-02-08T09:27:08.048Z,1007.08
2019-02-08T09:28:08.011Z,1007.10
2019-02-08T09:29:08.001Z,1007.02
2019-02-08T09:30:07.991Z,1007.04
2019-02-08T09:31:07.983Z,1007.06
2019-02-08T09:32:07.990Z,1007.02
2019-02-08T09:33:07.959Z,1007.00
2019-02-08T09:34:07.949Z,1007.01
2019-02-08T09:35:07.939Z,1007.00
2019-02-08T09:36:07.928Z,1007.01
2019-02-08T09:37:07.938Z,1007.01
2019-02-08T09:38:07.901Z,1007.00
2019-02-08T09:39:07.891Z,1006.91
2019-02-08T09:40:07.892Z,1006.88
2019-02-08T09:41:07.871Z,1006.92
2019-02-08T09:42:08.588Z,1006.91
2019-02-08T09:43:07.851Z,1006.90
2019-02-08T09:44:07.836Z,1006.93
2019-02-08T09:45:07.822Z,1006.92
2019-02-08T09:46:07.814Z,1006.94
2019-02-08T09:47:07.822Z,1006.80
2019-02-08T09:48:07.792Z,1006.84
2019-02-08T09:49:07.781Z,1006.80
2019-02-08T09:50:07.772Z,1006.76
2019-02-08T09:51:07.758Z,1006.72
2019-02-08T09:52:07.767Z,1006.75
2019-02-08T09:53:07.737Z,1006.73
2019-02-08T09:54:07.725Z,1006.74
2019-02-08T09:55:07.721Z,1006.70
2019-02-08T09:56:07.709Z,1006.72
2019-02-08T09:57:07.712Z,1006.66
2019-02-08T09:58:07.693Z,1006.67
2019-02-08T09:59:07.670Z,1006.68
2019-02-08T10:00:07.660Z,1006.64
2019-02-08T10:01:07.649Z,1006.62
2019-02-08T10:02:07.662Z,1006.64
2019-02-08T10:03:07.626Z,1006.60
2019-02-08T10:04:07.623Z,1006.65
2019-02-08T10:05:07.604Z,1006.61
2019-02-08T10:06:07.594Z,1006.59
2019-02-08T10:07:07.628Z,1006.54
2019-02-08T10:08:07.575Z,1006.61
2019-02-08T10:09:07.564Z,1006.62
2019-02-08T10:10:07.551Z,1006.59
2019-02-08T10:11:07.540Z,1006.58
2019-02-08T10:12:07.547Z,1006.61
2019-02-08T10:13:07.521Z,1006.59
2019-02-08T10:14:07.506Z,1006.59
2019-02-08T10:15:07.493Z,1006.59
2019-02-08T10:16:07.483Z,1006.62
2019-02-08T10:17:07.499Z,1006.61
2019-02-08T10:18:07.474Z,1006.60
2019-02-08T10:19:07.451Z,1006.61
2019-02-08T10:20:07.444Z,1006.56
2019-02-08T10:21:07.429Z,1006.58
2019-02-08T10:22:07.437Z,1006.53
2019-02-08T10:23:07.408Z,1006.45
2019-02-08T10:24:07.394Z,1006.53
2019-02-08T10:25:07.383Z,1006.51
2019-02-08T10:26:07.376Z,1006.51
2019-02-08T10:27:07.380Z,1006.56
2019-02-08T10:28:07.355Z,1006.57
2019-02-08T10:29:07.340Z,1006.58
2019-02-08T10:30:07.330Z,1006.52
2019-02-08T10:31:07.322Z,1006.54
2019-02-08T10:32:07.329Z,1006.54
2019-02-08T10:33:07.305Z,1006.53
2019-02-08T10:34:07.287Z,1006.53
2019-02-08T10:35:07.276Z,1006.52
2019-02-08T10:36:07.263Z,1006.47
2019-02-08T10:37:07.276Z,1006.50
2019-02-08T10:38:07.241Z,1006.54
2019-02-08T10:39:07.235Z,1006.45
2019-02-08T10:40:07.221Z,1006.51
2019-02-08T10:41:07.209Z,1006.52
2019-02-08T10:42:07.216Z,1006.51
2019-02-08T10:43:07.189Z,1006.54
2019-02-08T10:44:07.174Z,1006.50
2019-02-08T10:45:07.165Z,1006.45
2019-02-08T10:46:07.152Z,1006.49
2019-02-08T10:47:07.175Z,1006.45
2019-02-08T10:48:07.132Z,1006.52
2019-02-08T10:49:07.123Z,1006.43
2019-02-08T10:50:07.110Z,1006.36
2019-02-08T10:51:07.097Z,1006.37
2019-02-08T10:52:07.089Z,1006.31
2019-02-08T10:53:07.094Z,1006.32
2019-02-08T10:54:07.065Z,1006.29
2019-02-08T10:55:07.058Z,1006.30
2019-02-08T10:56:14.927Z,1006.23
2019-02-08T10:57:07.036Z,1006.23
2019-02-08T10:58:07.048Z,1006.18
2019-02-08T10:59:07.982Z,1006.21
2019-02-08T11:00:06.999Z,1006.17
2019-02-08T11:01:06.988Z,1006.18
2019-02-08T11:02:06.984Z,1006.11
2019-02-08T11:03:06.991Z,1006.17
2019-02-08T11:04:07.009Z,1006.15
2019-02-08T11:05:06.943Z,1006.15
2019-02-08T11:06:06.933Z,1006.16
2019-02-08T11:07:06.926Z,1006.23
2019-02-08T11:08:06.933Z,1006.15
2019-02-08T11:09:16.418Z,1006.19
2019-02-08T11:10:06.891Z,1006.17
2019-02-08T11:11:06.877Z,1006.17
2019-02-08T11:12:06.882Z,1006.16
2019-02-08T11:13:06.885Z,1006.16
2019-02-08T11:14:06.846Z,1006.10
2019-02-08T11:15:06.835Z,1006.07
2019-02-08T11:16:06.822Z,1006.11
2019-02-08T11:17:06.817Z,1006.08
2019-02-08T11:18:06.818Z,1006.06
2019-02-08T11:19:06.794Z,1006.02
2019-02-08T11:20:06.780Z,1006.08
2019-02-08T11:21:06.773Z,1006.04
2019-02-08T11:22:06.757Z,1006.03
2019-02-08T11:23:06.766Z,1006.03
2019-02-08T11:24:06.735Z,1006.09
2019-02-08T11:25:06.723Z,1006.07
2019-02-08T11:26:06.716Z,1006.02
2019-02-08T11:27:06.711Z,1006.00
2019-02-08T11:28:06.711Z,1005.99
2019-02-08T11:29:06.681Z,1005.94
2019-02-08T11:30:06.690Z,1006.00
2019-02-08T11:31:16.303Z,1005.94
2019-02-08T11:32:06.652Z,1005.93
2019-02-08T11:33:06.658Z,1005.89
2019-02-08T11:34:06.624Z,1005.88
2019-02-08T11:35:06.617Z,1005.80
2019-02-08T11:36:06.607Z,1005.86
2019-02-08T11:37:06.594Z,1005.85
2019-02-08T11:38:06.612Z,1005.82
2019-02-08T11:39:06.570Z,1005.86
2019-02-08T11:40:06.561Z,1005.81
2019-02-08T11:41:06.548Z,1005.83
2019-02-08T11:42:06.538Z,1005.79
2019-02-08T11:43:06.547Z,1005.75
2019-02-08T11:44:06.514Z,1005.74
2019-02-08T11:45:06.505Z,1005.72
2019-02-08T11:46:06.492Z,1005.80
2019-02-08T11:47:06.482Z,1005.73
2019-02-08T11:48:06.491Z,1005.69
2019-02-08T11:49:06.460Z,1005.74
2019-02-08T11:50:06.449Z,1005.64
2019-02-08T11:51:06.440Z,1005.70
2019-02-08T11:52:06.428Z,1005.68
2019-02-08T11:53:06.440Z,1005.68
2019-02-08T11:54:06.410Z,1005.70
2019-02-08T11:55:06.430Z,1005.67
2019-02-08T11:56:06.390Z,1005.64
2019-02-08T11:57:06.373Z,1005.63
2019-02-08T11:58:06.384Z,1005.61
2019-02-08T11:59:06.362Z,1005.65
2019-02-08T12:00:06.342Z,1005.63
2019-02-08T12:01:06.335Z,1005.64
2019-02-08T12:02:06.320Z,1005.58
2019-02-08T12:03:06.325Z,1005.52
2019-02-08T12:04:06.296Z,1005.57
2019-02-08T12:05:06.290Z,1005.51
2019-02-08T12:06:06.283Z,1005.47
2019-02-08T12:07:06.262Z,1005.52